Time,TemperatureF,DewpointF,PressureIn,WindDirection,WindDirectionDegrees,WindSpeedMPH,WindSpeedGustMPH,Humidity,HourlyPrecipIn,Conditions,Clouds,dailyrainin,SoftwareType,DateUTC
2013-03-23 00:00:00,17.3,12.7,29.82,NE,51,0.0,0.0,82,0.00,,,0.00,Wunderground v.1.15,2013-03-23 06:00:00,
2013-03-23 00:10:00,17.2,12.6,29.82,NE,51,0.0,0.0,82,0.00,,,0.00,Wunderground v.1.15,2013-03-23 06:10:00,
2013-03-23 00:15:00,17.2,12.6,29.82,NE,51,0.0,0.0,82,0.00,,,0.00,Wunderground v.1.15,2013-03-23 06:15:00,
2013-03-23 00:25:00,17.0,12.5,29.82,NE,51,0.0,0.0,82,0.00,,,0.00,Wunderground v.1.15,2013-03-23 06:25:00,
2013-03-23 00:30:00,16.9,12.1,29.80,NE,42,0.0,0.0,81,0.00,,,0.00,Wunderground v.1.15,2013-03-23 06:30:00,
2013-03-23 00:40:00,16.5,11.7,29.80,NE,42,0.0,0.0,81,0.00,,,0.00,Wunderground v.1.15,2013-03-23 06:40:00,
2013-03-23 00:45:00,16.5,11.7,29.80,NE,42,0.0,0.0,81,0.00,,,0.00,Wunderground v.1.15,2013-03-23 06:45:00,
2013-03-23 00:55:00,16.4,11.6,29.80,NNE,32,0.0,0.0,81,0.00,,,0.00,Wunderground v.1.15,2013-03-23 06:55:00,
2013-03-23 01:00:00,16.2,11.4,29.82,NNE,31,0.0,0.0,81,0.00,,,0.00,Wunderground v.1.15,2013-03-23 07:00:00,
2013-03-23 01:10:00,16.2,11.7,29.82,NNE,31,0.0,0.0,82,0.00,,,0.00,Wunderground v.1.15,2013-03-23 07:10:00,
2013-03-23 01:15:00,16.1,11.6,29.82,NNE,31,0.0,0.0,82,0.00,,,0.00,Wunderground v.1.15,2013-03-23 07:15:00,
2013-03-23 01:25:00,16.1,11.6,29.82,NNE,31,0.0,0.0,82,0.00,,,0.00,Wunderground v.1.15,2013-03-23 07:25:00,
2013-03-23 01:30:00,16.1,11.6,29.79,NNE,31,0.0,0.0,82,0.00,,,0.00,Wunderground v.1.15,2013-03-23 07:30:00,
2013-03-23 01:40:00,16.1,11.6,29.79,NNE,31,0.0,0.0,82,0.00,,,0.00,Wunderground v.1.15,2013-03-23 07:40:00,
2013-03-23 01:45:00,16.1,11.6,29.80,NNE,31,0.0,0.0,82,0.00,,,0.00,Wunderground v.1.15,2013-03-23 07:45:00,
2013-03-23 01:55:00,15.9,11.4,29.80,NNE,31,0.0,0.0,82,0.00,,,0.00,Wunderground v.1.15,2013-03-23 07:55:00,
2013-03-23 02:05:00,15.7,10.9,29.79,NNE,31,0.0,0.0,81,0.00,,,0.00,Wunderground v.1.15,2013-03-23 08:05:00,
2013-03-23 02:10:00,15.4,10.3,29.79,NNE,31,0.0,0.0,80,0.00,,,0.00,Wunderground v.1.15,2013-03-23 08:10:00,
2013-03-23 02:15:00,14.9,9.8,29.79,NNE,28,0.0,0.0,80,0.00,,,0.00,Wunderground v.1.15,2013-03-23 08:15:00,
2013-03-23 02:25:00,14.3,9.0,29.79,NNE,27,0.0,0.0,79,0.00,,,0.00,Wunderground v.1.15,2013-03-23 08:25:00,
2013-03-23 02:50:00,13.6,8.6,29.90,NNE,24,0.0,0.0,80,0.00,,,0.00,Wunderground v.1.15,2013-03-23 08:50:00,
2013-03-23 02:55:00,13.6,8.6,29.90,NNE,24,0.0,0.0,80,0.00,,,0.00,Wunderground v.1.15,2013-03-23 08:55:00,
2013-03-23 03:00:00,13.6,8.6,29.91,NNE,24,0.0,0.0,80,0.00,,,0.00,Wunderground v.1.15,2013-03-23 09:00:00,
2013-03-23 03:10:00,13.5,8.5,29.91,NNE,24,0.0,0.0,80,0.00,,,0.00,Wunderground v.1.15,2013-03-23 09:10:00,
2013-03-23 03:15:00,13.5,8.5,29.91,NNE,24,0.0,0.0,80,0.00,,,0.00,Wunderground v.1.15,2013-03-23 09:15:00,
2013-03-23 03:25:00,13.3,8.3,29.91,NNE,24,0.0,0.0,80,0.00,,,0.00,Wunderground v.1.15,2013-03-23 09:25:00,
2013-03-23 03:30:00,13.3,8.3,30.04,NNE,24,0.0,0.0,80,0.00,,,0.00,Wunderground v.1.15,2013-03-23 09:30:00,
2013-03-23 03:40:00,13.3,8.3,30.04,NNE,24,0.0,0.0,80,0.00,,,0.00,Wunderground v.1.15,2013-03-23 09:40:00,
2013-03-23 03:45:00,13.3,8.3,30.02,NNE,24,0.0,0.0,80,0.00,,,0.00,Wunderground v.1.15,2013-03-23 09:45:00,
2013-03-23 03:55:00,13.1,8.1,30.02,NNE,24,0.0,0.0,80,0.00,,,0.00,Wunderground v.1.15,2013-03-23 09:55:00,
2013-03-23 04:00:00,13.1,8.1,30.03,NNE,24,0.0,0.0,80,0.00,,,0.00,Wunderground v.1.15,2013-03-23 10:00:00,
2013-03-23 04:10:00,13.1,8.1,30.03,NNE,24,0.0,0.0,80,0.00,,,0.00,Wunderground v.1.15,2013-03-23 10:10:00,
2013-03-23 04:15:00,13.1,8.1,30.03,NNE,24,0.0,0.0,80,0.00,,,0.00,Wunderground v.1.15,2013-03-23 10:15:00,
2013-03-23 04:25:00,13.1,8.1,30.03,NNE,24,0.0,0.0,80,0.00,,,0.00,Wunderground v.1.15,2013-03-23 10:25:00,
2013-03-23 04:30:00,13.1,8.1,29.94,NNE,24,0.0,0.0,80,0.00,,,0.00,Wunderground v.1.15,2013-03-23 10:30:00,
2013-03-23 04:40:00,13.1,8.1,29.94,NNE,24,0.0,0.0,80,0.00,,,0.00,Wunderground v.1.15,2013-03-23 10:40:00,
2013-03-23 04:45:00,13.1,8.1,29.94,NNE,24,0.0,0.0,80,0.00,,,0.00,Wunderground v.1.15,2013-03-23 10:45:00,
2013-03-23 04:55:00,13.1,8.1,29.94,NNE,24,0.0,0.0,80,0.00,,,0.00,Wunderground v.1.15,2013-03-23 10:55:00,
2013-03-23 05:00:00,13.1,8.1,29.94,NNE,24,0.0,0.0,80,0.00,,,0.00,Wunderground v.1.15,2013-03-23 11:00:00,
2013-03-23 05:10:00,12.9,7.6,29.94,NNE,24,0.0,0.0,79,0.00,,,0.00,Wunderground v.1.15,2013-03-23 11:10:00,
2013-03-23 05:20:00,12.9,7.9,29.94,NNE,24,0.0,0.0,80,0.00,,,0.00,Wunderground v.1.15,2013-03-23 11:20:00,
2013-03-23 05:25:00,12.9,7.9,29.94,NNE,24,0.0,0.0,80,0.00,,,0.00,Wunderground v.1.15,2013-03-23 11:25:00,
2013-03-23 05:30:00,12.8,7.5,29.94,NNE,24,0.0,0.0,79,0.00,,,0.00,Wunderground v.1.15,2013-03-23 11:30:00,
2013-03-23 05:40:00,12.8,7.5,29.94,East,90,0.0,0.0,79,0.00,,,0.00,Wunderground v.1.15,2013-03-23 11:40:00,
2013-03-23 05:45:00,12.8,7.2,29.95,East,90,0.0,0.0,78,0.00,,,0.00,Wunderground v.1.15,2013-03-23 11:45:00,
2013-03-23 05:55:00,12.6,7.0,29.95,ENE,78,0.0,0.0,78,0.00,,,0.00,Wunderground v.1.15,2013-03-23 11:55:00,
2013-03-23 06:00:00,12.4,6.8,29.97,ENE,78,0.0,0.0,78,0.00,,,0.00,Wunderground v.1.15,2013-03-23 12:00:00,
2013-03-23 06:10:00,12.3,6.5,29.97,ENE,71,0.0,0.0,77,0.00,,,0.00,Wunderground v.1.15,2013-03-23 12:10:00,
2013-03-23 06:15:00,12.3,6.5,29.97,ENE,71,0.0,0.0,77,0.00,,,0.00,Wunderground v.1.15,2013-03-23 12:15:00,
2013-03-23 06:25:00,12.3,6.7,29.97,ENE,71,0.0,0.0,78,0.00,,,0.00,Wunderground v.1.15,2013-03-23 12:25:00,
2013-03-23 06:30:00,12.1,6.6,29.97,ENE,71,0.0,0.0,78,0.00,,,0.00,Wunderground v.1.15,2013-03-23 12:30:00,
2013-03-23 06:40:00,12.1,6.6,29.97,ENE,71,0.0,0.0,78,0.00,,,0.00,Wunderground v.1.15,2013-03-23 12:40:00,
2013-03-23 06:50:00,12.1,6.8,29.98,ENE,71,0.0,0.0,79,0.00,,,0.00,Wunderground v.1.15,2013-03-23 12:50:00,
2013-03-23 07:00:00,12.1,6.8,29.98,ENE,71,0.0,0.0,79,0.00,,,0.00,Wunderground v.1.15,2013-03-23 13:00:00,
2013-03-23 07:10:00,12.1,6.8,29.98,ENE,71,0.0,0.0,79,0.00,,,0.00,Wunderground v.1.15,2013-03-23 13:10:00,
2013-03-23 07:15:00,11.9,6.6,29.98,ENE,71,0.0,0.0,79,0.00,,,0.00,Wunderground v.1.15,2013-03-23 13:15:00,
2013-03-23 07:25:00,11.9,6.6,29.98,ENE,71,0.0,0.0,79,0.00,,,0.00,Wunderground v.1.15,2013-03-23 13:25:00,
2013-03-23 07:30:00,11.9,6.6,29.99,ENE,68,0.0,0.0,79,0.00,,,0.00,Wunderground v.1.15,2013-03-23 13:30:00,
2013-03-23 07:40:00,11.9,6.1,29.99,ENE,59,0.0,0.0,77,0.00,,,0.00,Wunderground v.1.15,2013-03-23 13:40:00,
2013-03-23 07:50:00,11.7,5.6,29.99,ENE,58,0.0,0.0,76,0.00,,,0.00,Wunderground v.1.15,2013-03-23 13:50:00,
2013-03-23 07:55:00,11.9,5.8,29.99,ENE,58,0.0,0.0,76,0.00,,,0.00,Wunderground v.1.15,2013-03-23 13:55:00,
2013-03-23 08:00:00,11.9,5.8,30.00,ENE,58,0.0,0.0,76,0.00,,,0.00,Wunderground v.1.15,2013-03-23 14:00:00,
2013-03-23 08:10:00,12.1,5.7,30.00,ENE,58,0.0,0.0,75,0.00,,,0.00,Wunderground v.1.15,2013-03-23 14:10:00,
2013-03-23 08:15:00,12.1,5.4,30.00,ENE,59,0.0,0.0,74,0.00,,,0.00,Wunderground v.1.15,2013-03-23 14:15:00,
2013-03-23 08:25:00,12.3,5.6,30.00,ENE,58,0.0,0.0,74,0.00,,,0.00,Wunderground v.1.15,2013-03-23 14:25:00,
2013-03-23 08:30:00,12.3,5.9,30.02,ENE,58,0.0,0.0,75,0.00,,,0.00,Wunderground v.1.15,2013-03-23 14:30:00,
2013-03-23 08:40:00,12.3,6.2,30.02,ENE,58,0.0,0.0,76,0.00,,,0.00,Wunderground v.1.15,2013-03-23 14:40:00,
2013-03-23 08:45:00,12.3,6.5,30.03,ENE,58,0.0,0.0,77,0.00,,,0.00,Wunderground v.1.15,2013-03-23 14:45:00,
2013-03-23 08:55:00,12.3,6.5,30.03,ENE,58,0.0,0.0,77,0.00,,,0.00,Wunderground v.1.15,2013-03-23 14:55:00,
2013-03-23 09:00:00,12.3,6.2,30.04,ENE,58,0.0,0.0,76,0.00,,,0.00,Wunderground v.1.15,2013-03-23 15:00:00,
2013-03-23 09:10:00,12.3,5.9,30.04,ENE,58,0.0,0.0,75,0.00,,,0.00,Wunderground v.1.15,2013-03-23 15:10:00,
2013-03-23 09:15:00,12.4,6.0,30.04,ENE,58,0.0,0.0,75,0.00,,,0.00,Wunderground v.1.15,2013-03-23 15:15:00,
2013-03-23 09:25:00,12.6,5.9,30.04,ENE,58,0.0,0.0,74,0.00,,,0.00,Wunderground v.1.15,2013-03-23 15:25:00,
2013-03-23 09:30:00,12.6,6.2,30.06,ENE,58,0.0,0.0,75,0.00,,,0.00,Wunderground v.1.15,2013-03-23 15:30:00,
2013-03-23 09:40:00,12.8,6.4,30.06,ENE,58,0.0,0.0,75,0.00,,,0.00,Wunderground v.1.15,2013-03-23 15:40:00,
2013-03-23 09:45:00,13.1,6.7,30.04,ENE,58,0.0,0.0,75,0.00,,,0.00,Wunderground v.1.15,2013-03-23 15:45:00,
2013-03-23 09:55:00,13.8,7.6,30.04,ENE,58,0.0,0.0,76,0.00,,,0.00,Wunderground v.1.15,2013-03-23 15:55:00,
2013-03-23 10:00:00,14.1,7.9,30.05,ENE,58,0.0,0.0,76,0.00,,,0.00,Wunderground v.1.15,2013-03-23 16:00:00,
2013-03-23 10:10:00,14.6,7.5,30.05,ENE,58,0.0,0.0,73,0.00,,,0.00,Wunderground v.1.15,2013-03-23 16:10:00,
2013-03-23 10:15:00,14.8,8.0,30.04,ENE,58,0.0,0.0,74,0.00,,,0.00,Wunderground v.1.15,2013-03-23 16:15:00,
2013-03-23 10:25:00,14.9,7.5,30.04,ENE,58,0.0,0.0,72,0.00,,,0.00,Wunderground v.1.15,2013-03-23 16:25:00,
2013-03-23 10:30:00,14.9,7.2,30.06,ENE,58,0.0,0.0,71,0.00,,,0.00,Wunderground v.1.15,2013-03-23 16:30:00,
2013-03-23 10:40:00,14.8,6.8,30.06,ENE,58,0.0,0.0,70,0.00,,,0.00,Wunderground v.1.15,2013-03-23 16:40:00,
2013-03-23 10:45:00,14.6,6.6,30.06,ENE,58,0.0,0.0,70,0.00,,,0.00,Wunderground v.1.15,2013-03-23 16:45:00,
2013-03-23 10:55:00,14.8,7.4,30.06,ENE,58,0.0,0.0,72,0.00,,,0.00,Wunderground v.1.15,2013-03-23 16:55:00,
2013-03-23 11:00:00,14.9,7.2,30.07,ENE,58,0.0,0.0,71,0.00,,,0.00,Wunderground v.1.15,2013-03-23 17:00:00,
2013-03-23 11:10:00,15.1,7.4,30.07,ENE,58,0.0,0.0,71,0.00,,,0.00,Wunderground v.1.15,2013-03-23 17:10:00,
2013-03-23 11:15:00,15.1,7.1,30.07,ENE,58,0.0,0.0,70,0.00,,,0.00,Wunderground v.1.15,2013-03-23 17:15:00,
2013-03-23 11:25:00,14.9,6.9,30.07,ENE,58,0.0,0.0,70,0.00,,,0.00,Wunderground v.1.15,2013-03-23 17:25:00,
2013-03-23 11:30:00,15.2,7.8,30.08,ENE,58,0.0,0.0,72,0.00,,,0.00,Wunderground v.1.15,2013-03-23 17:30:00,
2013-03-23 11:40:00,15.9,7.5,30.08,ENE,58,0.0,0.0,69,0.00,,,0.00,Wunderground v.1.15,2013-03-23 17:40:00,
2013-03-23 11:45:00,15.7,8.0,30.08,ENE,58,0.0,0.0,71,0.00,,,0.00,Wunderground v.1.15,2013-03-23 17:45:00,
2013-03-23 11:55:00,15.6,7.9,30.08,NE,47,0.0,0.0,71,0.00,,,0.00,Wunderground v.1.15,2013-03-23 17:55:00,
2013-03-23 12:05:00,16.5,8.1,30.08,NE,47,0.0,0.0,69,0.00,,,0.00,Wunderground v.1.15,2013-03-23 18:05:00,
2013-03-23 12:10:00,16.9,8.5,30.08,NE,47,0.0,0.0,69,0.00,,,0.00,Wunderground v.1.15,2013-03-23 18:10:00,
2013-03-23 12:20:00,17.3,8.5,30.07,NE,47,0.0,0.0,68,0.00,,,0.00,Wunderground v.1.15,2013-03-23 18:20:00,
2013-03-23 12:30:00,17.5,8.4,30.08,NE,47,0.0,0.0,67,0.00,,,0.00,Wunderground v.1.15,2013-03-23 18:30:00,
2013-03-23 12:40:00,18.1,9.0,30.08,NE,47,0.0,0.0,67,0.00,,,0.00,Wunderground v.1.15,2013-03-23 18:40:00,
2013-03-23 12:45:00,18.6,9.5,30.07,NE,47,0.0,0.0,67,0.00,,,0.00,Wunderground v.1.15,2013-03-23 18:45:00,
2013-03-23 12:55:00,18.3,8.5,30.07,NE,47,0.0,0.0,65,0.00,,,0.00,Wunderground v.1.15,2013-03-23 18:55:00,
2013-03-23 13:00:00,18.3,9.5,30.08,NE,47,0.0,0.0,68,0.00,,,0.00,Wunderground v.1.15,2013-03-23 19:00:00,
2013-03-23 13:10:00,18.0,8.9,30.08,NE,45,0.0,0.0,67,0.00,,,0.00,Wunderground v.1.15,2013-03-23 19:10:00,
2013-03-23 13:20:00,17.5,8.1,30.08,North,8,0.0,2.0,66,0.00,,,0.01,Wunderground v.1.15,2013-03-23 19:20:00,
2013-03-23 13:25:00,17.5,7.7,30.08,North,8,0.0,2.0,65,0.00,,,0.01,Wunderground v.1.15,2013-03-23 19:25:00,
2013-03-23 13:30:00,17.5,8.1,30.10,North,8,0.0,1.0,66,0.00,,,0.01,Wunderground v.1.15,2013-03-23 19:30:00,
2013-03-23 13:40:00,17.5,8.4,30.10,NNE,14,1.0,1.0,67,0.00,,,0.01,Wunderground v.1.15,2013-03-23 19:40:00,
2013-03-23 13:45:00,17.2,8.1,30.11,NE,41,1.0,1.0,67,0.00,,,0.01,Wunderground v.1.15,2013-03-23 19:45:00,
2013-03-23 13:55:00,17.3,8.2,30.11,NE,37,0.0,1.0,67,0.00,,,0.01,Wunderground v.1.15,2013-03-23 19:55:00,
2013-03-23 14:00:00,17.2,8.1,30.11,NE,34,0.0,0.0,67,0.00,,,0.01,Wunderground v.1.15,2013-03-23 20:00:00,
2013-03-23 14:10:00,17.3,7.9,30.11,NNE,27,0.0,0.0,66,0.00,,,0.01,Wunderground v.1.15,2013-03-23 20:10:00,
2013-03-23 14:15:00,17.7,7.6,30.11,NNE,27,0.0,0.0,64,0.00,,,0.01,Wunderground v.1.15,2013-03-23 20:15:00,
2013-03-23 14:25:00,18.1,8.0,30.11,NNE,27,0.0,0.0,64,0.00,,,0.01,Wunderground v.1.15,2013-03-23 20:25:00,
2013-03-23 14:30:00,18.0,6.8,30.11,NNE,25,0.0,1.0,61,0.00,,,0.01,Wunderground v.1.15,2013-03-23 20:30:00,
2013-03-23 14:40:00,18.0,6.8,30.11,NNE,25,0.0,1.0,61,0.00,,,0.01,Wunderground v.1.15,2013-03-23 20:40:00,
2013-03-23 14:45:00,18.4,6.8,30.11,NNE,25,0.0,1.0,60,0.00,,,0.01,Wunderground v.1.15,2013-03-23 20:45:00,
2013-03-23 14:55:00,19.4,7.4,30.11,NNE,25,0.0,0.0,59,0.00,,,0.01,Wunderground v.1.15,2013-03-23 20:55:00,
2013-03-23 15:00:00,19.4,7.8,30.09,NNE,25,0.0,0.0,60,0.00,,,0.01,Wunderground v.1.15,2013-03-23 21:00:00,
2013-03-23 15:10:00,18.1,7.6,30.09,NNE,23,0.0,0.0,63,0.00,,,0.01,Wunderground v.1.15,2013-03-23 21:10:00,
2013-03-23 15:15:00,18.0,7.2,30.11,NNE,23,0.0,2.0,62,0.00,,,0.01,Wunderground v.1.15,2013-03-23 21:15:00,
2013-03-23 15:25:00,17.2,7.8,30.11,North,0,1.0,5.0,66,0.00,,,0.01,Wunderground v.1.15,2013-03-23 21:25:00,
2013-03-23 15:30:00,16.9,8.2,30.13,North,6,1.0,1.0,68,0.00,,,0.01,Wunderground v.1.15,2013-03-23 21:30:00,
2013-03-23 15:40:00,16.9,7.5,30.13,NNE,16,0.0,2.0,66,0.00,,,0.01,Wunderground v.1.15,2013-03-23 21:40:00,
2013-03-23 15:45:00,17.0,7.3,30.14,NNE,16,0.0,2.0,65,0.00,,,0.01,Wunderground v.1.15,2013-03-23 21:45:00,
2013-03-23 15:55:00,17.2,7.1,30.14,NNE,16,0.0,0.0,64,0.00,,,0.01,Wunderground v.1.15,2013-03-23 21:55:00,
2013-03-23 16:00:00,17.2,6.4,30.15,NNE,16,0.0,0.0,62,0.00,,,0.01,Wunderground v.1.15,2013-03-23 22:00:00,
2013-03-23 16:10:00,17.5,6.7,30.15,NE,38,0.0,0.0,62,0.00,,,0.01,Wunderground v.1.15,2013-03-23 22:10:00,
2013-03-23 16:15:00,17.7,6.2,30.15,NE,37,0.0,0.0,60,0.00,,,0.01,Wunderground v.1.15,2013-03-23 22:15:00,
2013-03-23 16:25:00,17.3,5.8,30.15,NE,37,0.0,0.0,60,0.00,,,0.01,Wunderground v.1.15,2013-03-23 22:25:00,
2013-03-23 16:30:00,17.5,5.6,30.15,NE,37,0.0,0.0,59,0.00,,,0.01,Wunderground v.1.15,2013-03-23 22:30:00,
2013-03-23 16:40:00,17.2,6.4,30.15,NE,37,0.0,0.0,62,0.00,,,0.01,Wunderground v.1.15,2013-03-23 22:40:00,
2013-03-23 16:45:00,17.0,6.2,30.16,NE,37,0.0,0.0,62,0.00,,,0.01,Wunderground v.1.15,2013-03-23 22:45:00,
2013-03-23 16:55:00,17.3,5.8,30.16,NE,49,0.0,0.0,60,0.00,,,0.01,Wunderground v.1.15,2013-03-23 22:55:00,
2013-03-23 17:00:00,17.3,6.1,30.16,NE,49,0.0,0.0,61,0.00,,,0.01,Wunderground v.1.15,2013-03-23 23:00:00,
2013-03-23 17:05:00,17.0,5.5,30.16,NE,48,0.0,0.0,60,0.00,,,0.01,Wunderground v.1.15,2013-03-23 23:05:00,
2013-03-23 17:15:00,16.9,5.8,30.17,NNE,32,0.0,0.0,61,0.00,,,0.01,Wunderground v.1.15,2013-03-23 23:15:00,
2013-03-23 17:25:00,16.5,5.4,30.17,NNE,32,0.0,0.0,61,0.00,,,0.01,Wunderground v.1.15,2013-03-23 23:25:00,
2013-03-23 17:30:00,16.5,5.7,30.19,NNE,32,0.0,1.0,62,0.00,,,0.01,Wunderground v.1.15,2013-03-23 23:30:00,
2013-03-23 17:40:00,16.5,5.7,30.19,NNE,32,0.0,1.0,62,0.00,,,0.01,Wunderground v.1.15,2013-03-23 23:40:00,
2013-03-23 17:45:00,16.5,5.7,30.19,NNE,32,0.0,1.0,62,0.00,,,0.01,Wunderground v.1.15,2013-03-23 23:45:00,
2013-03-23 17:55:00,16.7,5.2,30.19,NNE,32,0.0,0.0,60,0.00,,,0.01,Wunderground v.1.15,2013-03-23 23:55:00,
2013-03-23 18:00:00,16.7,4.8,30.20,NNE,32,0.0,0.0,59,0.00,,,0.01,Wunderground v.1.15,2013-03-24 00:00:00,
2013-03-23 18:10:00,16.4,4.6,30.20,NNE,32,0.0,0.0,59,0.00,,,0.01,Wunderground v.1.15,2013-03-24 00:10:00,
2013-03-23 18:20:00,16.1,4.6,30.20,NNE,32,0.0,0.0,60,0.00,,,0.01,Wunderground v.1.15,2013-03-24 00:20:00,
2013-03-23 18:25:00,15.7,4.3,30.20,NNE,32,0.0,0.0,60,0.00,,,0.01,Wunderground v.1.15,2013-03-24 00:25:00,
2013-03-23 18:30:00,15.4,4.0,30.21,NNE,32,0.0,0.0,60,0.00,,,0.01,Wunderground v.1.15,2013-03-24 00:30:00,
2013-03-23 18:40:00,14.9,3.9,30.21,NNE,32,0.0,0.0,61,0.00,,,0.01,Wunderground v.1.15,2013-03-24 00:40:00,
2013-03-23 18:45:00,14.4,3.7,30.23,NNE,32,0.0,0.0,62,0.00,,,0.01,Wunderground v.1.15,2013-03-24 00:45:00,
2013-03-23 18:55:00,14.0,3.4,30.23,NNE,32,0.0,0.0,62,0.00,,,0.01,Wunderground v.1.15,2013-03-24 00:55:00,
2013-03-23 19:00:00,13.6,3.0,30.24,NNE,32,0.0,0.0,62,0.00,,,0.01,Wunderground v.1.15,2013-03-24 01:00:00,
2013-03-23 19:10:00,13.1,3.5,30.24,NNE,32,0.0,0.0,65,0.00,,,0.01,Wunderground v.1.15,2013-03-24 01:10:00,
2013-03-23 19:15:00,12.8,3.2,30.26,NNE,32,0.0,0.0,65,0.00,,,0.01,Wunderground v.1.15,2013-03-24 01:15:00,
2013-03-23 19:20:00,12.4,2.9,30.26,NNE,32,0.0,0.0,65,0.00,,,0.01,Wunderground v.1.15,2013-03-24 01:20:00,
2013-03-23 19:30:00,11.7,2.5,30.27,NNE,32,0.0,0.0,66,0.00,,,0.01,Wunderground v.1.15,2013-03-24 01:30:00,
2013-03-23 19:40:00,10.9,2.1,30.27,NNE,32,0.0,0.0,67,0.00,,,0.01,Wunderground v.1.15,2013-03-24 01:40:00,
2013-03-23 19:45:00,10.2,1.4,30.29,NNE,32,0.0,0.0,67,0.00,,,0.01,Wunderground v.1.15,2013-03-24 01:45:00,
2013-03-23 19:55:00,9.2,1.1,30.29,NNE,32,0.0,0.0,69,0.00,,,0.01,Wunderground v.1.15,2013-03-24 01:55:00,
2013-03-23 20:00:00,9.2,1.7,30.31,NNE,32,0.0,0.0,71,0.00,,,0.01,Wunderground v.1.15,2013-03-24 02:00:00,
2013-03-23 20:10:00,9.0,2.1,30.31,NNE,32,0.0,0.0,73,0.00,,,0.01,Wunderground v.1.15,2013-03-24 02:10:00,
2013-03-23 20:15:00,9.2,2.6,30.32,NNE,32,0.0,0.0,74,0.00,,,0.01,Wunderground v.1.15,2013-03-24 02:15:00,
2013-03-23 20:25:00,9.0,2.7,30.32,NNE,32,0.0,0.0,75,0.00,,,0.01,Wunderground v.1.15,2013-03-24 02:25:00,
2013-03-23 20:30:00,8.6,2.0,30.32,NNE,32,0.0,0.0,74,0.00,,,0.01,Wunderground v.1.15,2013-03-24 02:30:00,
2013-03-23 20:40:00,7.2,0.4,30.32,NNE,32,0.0,0.0,73,0.00,,,0.01,Wunderground v.1.15,2013-03-24 02:40:00,
2013-03-23 20:50:00,6.3,-0.2,30.35,NNE,32,0.0,0.0,74,0.00,,,0.01,Wunderground v.1.15,2013-03-24 02:50:00,
2013-03-23 20:55:00,5.6,-1.5,30.35,NNE,32,0.0,0.0,72,0.00,,,0.01,Wunderground v.1.15,2013-03-24 02:55:00,
2013-03-23 21:00:00,5.4,-1.1,30.37,NNE,32,0.0,0.0,74,0.00,,,0.01,Wunderground v.1.15,2013-03-24 03:00:00,
2013-03-23 21:10:00,4.8,-1.7,30.37,NNE,32,0.0,0.0,74,0.00,,,0.01,Wunderground v.1.15,2013-03-24 03:10:00,
2013-03-23 21:15:00,4.7,-1.8,30.38,NNE,32,0.0,0.0,74,0.00,,,0.01,Wunderground v.1.15,2013-03-24 03:15:00,
2013-03-23 21:25:00,4.3,-2.2,30.38,NNE,32,0.0,0.0,74,0.00,,,0.01,Wunderground v.1.15,2013-03-24 03:25:00,
2013-03-23 21:30:00,4.1,-2.4,30.36,NNE,32,0.0,0.0,74,0.00,,,0.01,Wunderground v.1.15,2013-03-24 03:30:00,
2013-03-23 21:40:00,3.5,-3.2,30.36,NNE,32,0.0,0.0,73,0.00,,,0.01,Wunderground v.1.15,2013-03-24 03:40:00,
2013-03-23 21:45:00,3.2,-3.5,30.36,NNE,32,0.0,0.0,73,0.00,,,0.01,Wunderground v.1.15,2013-03-24 03:45:00,
2013-03-23 21:55:00,3.0,-3.4,30.36,NNE,32,0.0,0.0,74,0.00,,,0.01,Wunderground v.1.15,2013-03-24 03:55:00,
2013-03-23 22:00:00,3.0,-3.7,30.37,NNE,32,0.0,0.0,73,0.00,,,0.01,Wunderground v.1.15,2013-03-24 04:00:00,
2013-03-23 22:05:00,2.6,-4.1,30.37,NNE,32,0.0,0.0,73,0.00,,,0.01,Wunderground v.1.15,2013-03-24 04:05:00,
2013-03-23 22:10:00,2.2,-4.8,30.37,NNE,32,0.0,0.0,72,0.00,,,0.01,Wunderground v.1.15,2013-03-24 04:10:00,
2013-03-23 22:15:00,2.0,-4.4,30.39,NNE,32,0.0,0.0,74,0.00,,,0.01,Wunderground v.1.15,2013-03-24 04:15:00,
2013-03-23 22:25:00,2.2,-4.2,30.39,NNE,32,0.0,0.0,74,0.00,,,0.01,Wunderground v.1.15,2013-03-24 04:25:00,
2013-03-23 22:30:00,2.4,-3.7,30.39,NNE,32,0.0,0.0,75,0.00,,,0.01,Wunderground v.1.15,2013-03-24 04:30:00,
2013-03-23 22:40:00,2.4,-4.0,30.39,NNE,32,0.0,0.0,74,0.00,,,0.01,Wunderground v.1.15,2013-03-24 04:40:00,
2013-03-23 22:45:00,2.0,-4.7,30.39,NNE,32,0.0,0.0,73,0.00,,,0.01,Wunderground v.1.15,2013-03-24 04:45:00,
2013-03-23 22:55:00,1.7,-5.0,30.39,NNE,32,0.0,0.0,73,0.00,,,0.01,Wunderground v.1.15,2013-03-24 04:55:00,
2013-03-23 23:00:00,1.3,-5.3,30.39,NNE,32,0.0,0.0,73,0.00,,,0.01,Wunderground v.1.15,2013-03-24 05:00:00,
2013-03-23 23:10:00,0.9,-5.7,30.39,NNE,32,0.0,0.0,73,0.00,,,0.01,Wunderground v.1.15,2013-03-24 05:10:00,
2013-03-23 23:15:00,0.9,-5.7,30.38,NNE,32,0.0,0.0,73,0.00,,,0.01,Wunderground v.1.15,2013-03-24 05:15:00,
2013-03-23 23:25:00,0.3,-6.3,30.38,NNE,32,0.0,0.0,73,0.00,,,0.01,Wunderground v.1.15,2013-03-24 05:25:00,
2013-03-23 23:30:00,0.3,-6.0,30.37,NNE,32,0.0,0.0,74,0.00,,,0.01,Wunderground v.1.15,2013-03-24 05:30:00,
2013-03-23 23:40:00,-0.2,-7.1,30.37,NNE,32,0.0,0.0,72,0.00,,,0.01,Wunderground v.1.15,2013-03-24 05:40:00,
2013-03-23 23:45:00,0.0,-6.3,30.37,NNE,32,0.0,0.0,74,0.00,,,0.01,Wunderground v.1.15,2013-03-24 05:45:00,
2013-03-23 23:55:00,-0.6,-7.5,30.37,NNE,32,0.0,0.0,72,0.00,,,0.01,Wunderground v.1.15,2013-03-24 05:55:00,